Time;durP1;ratioP1;P1;durP2;ratioP2;P2;SDS_P1;SDS_P2;PMS_P1;PMS_P2;Temp;Humidity;BMP_temperature;BMP_pressure;BME280_temperature;BME280_humidity;BME280_pressure;Samples;Min_cycle;Max_cycle;Signal;HPM_P1;HPM_P2
2021/12/08 00:00:50;;;;;;;26.00;12.90;;;;;;;-1.76;68.54;100174.23;126852;1311;106748;-80
2021/12/08 00:03:56;;;;;;;27.20;13.40;;;;;;;-1.82;68.42;100167.69;126898;1313;109003;-76
2021/12/08 00:07:02;;;;;;;31.10;15.70;;;;;;;-1.85;68.49;100166.96;126907;1313;108988;-77
2021/12/08 00:10:16;;;;;;;26.40;13.50;;;;;;;-1.86;68.83;100163.88;126892;1313;108589;-76
2021/12/08 00:13:23;;;;;;;26.60;13.50;;;;;;;-1.90;68.39;100161.81;126963;1314;107562;-76
2021/12/08 00:16:29;;;;;;;29.50;14.30;;;;;;;-1.94;68.17;100157.66;126965;1310;106741;-77
2021/12/08 00:19:34;;;;;;;30.20;15.20;;;;;;;-1.99;68.24;100155.23;126721;1313;107152;-77
2021/12/08 00:22:40;;;;;;;31.10;14.30;;;;;;;-2.03;68.05;100153.88;126976;1313;108888;-77
2021/12/08 00:25:46;;;;;;;25.30;13.60;;;;;;;-2.09;68.36;100156.96;126840;1311;108702;-77
2021/12/08 00:28:51;;;;;;;22.00;12.70;;;;;;;-2.12;68.46;100163.39;126927;1313;109059;-75
2021/12/08 00:31:56;;;;;;;21.60;11.90;;;;;;;-2.14;68.12;100166.10;126770;1313;108850;-75
2021/12/08 00:35:02;;;;;;;24.00;12.40;;;;;;;-2.16;68.18;100159.94;126815;1314;108729;-76
2021/12/08 00:38:08;;;;;;;21.50;12.00;;;;;;;-2.18;68.24;100161.77;126620;1314;108891;-75
2021/12/08 00:41:14;;;;;;;23.90;13.20;;;;;;;-2.20;68.03;100158.36;126653;1314;106780;-75
2021/12/08 00:44:19;;;;;;;23.40;12.70;;;;;;;-2.21;68.18;100157.06;126444;1317;108632;-75
2021/12/08 00:47:24;;;;;;;21.50;12.20;;;;;;;-2.24;68.21;100162.95;126625;1313;108789;-74
2021/12/08 00:50:33;;;;;;;21.80;12.20;;;;;;;-2.26;68.35;100166.36;126860;1313;108899;-76
2021/12/08 00:53:38;;;;;;;24.10;12.60;;;;;;;-2.27;67.99;100173.19;126667;1311;108809;-76
2021/12/08 00:56:44;;;;;;;24.60;12.40;;;;;;;-2.31;68.03;100171.30;126859;1314;108711;-78
2021/12/08 00:59:49;;;;;;;26.50;12.70;;;;;;;-2.34;68.11;100177.02;126889;1313;108913;-75
2021/12/08 01:02:55;;;;;;;24.10;12.60;;;;;;;-2.39;67.78;100173.74;126781;1314;108834;-75
2021/12/08 01:06:01;;;;;;;22.10;11.80;;;;;;;-2.47;67.68;100168.37;126631;1313;107914;-75
2021/12/08 01:09:07;;;;;;;23.60;12.70;;;;;;;-2.55;67.83;100162.50;126794;1311;108605;-77
2021/12/08 01:12:13;;;;;;;28.60;14.50;;;;;;;-2.59;67.93;100158.50;126892;1313;108941;-77
2021/12/08 01:15:20;;;;;;;23.20;12.60;;;;;;;-2.69;67.94;100159.33;126656;1311;110182;-77
2021/12/08 01:18:27;;;;;;;21.00;11.70;;;;;;;-2.82;68.03;100160.27;126970;1313;108816;-75
2021/12/08 01:21:33;;;;;;;27.00;13.10;;;;;;;-2.88;68.18;100153.94;127009;1310;108922;-77
2021/12/08 01:24:39;;;;;;;39.10;20.90;;;;;;;-2.94;68.17;100145.13;126947;1313;108930;-76
2021/12/08 01:27:44;;;;;;;24.10;13.40;;;;;;;-2.97;68.48;100147.69;126608;1313;107464;-75
2021/12/08 01:30:52;;;;;;;24.80;12.90;;;;;;;-2.95;68.63;100140.64;126595;1314;108772;-76
2021/12/08 01:33:58;;;;;;;27.80;14.00;;;;;;;-2.91;68.41;100145.55;126922;1313;107801;-77
2021/12/08 01:37:04;;;;;;;33.20;17.90;;;;;;;-2.84;68.34;100148.84;126970;1313;108933;-77
2021/12/08 01:40:13;;;;;;;28.60;14.00;;;;;;;-2.77;68.40;100156.38;126647;1313;108828;-75
2021/12/08 01:43:26;;;;;;;25.90;13.70;;;;;;;-2.74;68.37;100152.26;126791;1313;106648;-76
2021/12/08 01:46:33;;;;;;;27.30;14.10;;;;;;;-2.74;68.38;100142.84;126995;1311;108607;-77
2021/12/08 01:49:38;;;;;;;29.80;15.00;;;;;;;-2.74;68.29;100143.38;126963;1313;109066;-77
2021/12/08 01:52:43;;;;;;;31.00;15.10;;;;;;;-2.78;68.24;100139.18;126833;1313;108789;-76
2021/12/08 01:55:49;;;;;;;29.90;15.50;;;;;;;-2.83;68.50;100130.00;126995;1314;108796;-78
2021/12/08 01:58:56;;;;;;;31.30;15.40;;;;;;;-2.85;68.43;100126.78;126940;1314;109706;-77
2021/12/08 02:02:01;;;;;;;27.30;14.40;;;;;;;-2.88;68.65;100121.52;126938;1313;107914;-76
2021/12/08 02:05:07;;;;;;;30.20;15.70;;;;;;;-2.88;68.54;100117.71;126978;1314;108866;-74
2021/12/08 02:08:13;;;;;;;32.80;16.00;;;;;;;-2.92;68.97;100111.98;126988;1314;108755;-74
2021/12/08 02:11:19;;;;;;;28.80;14.90;;;;;;;-2.94;69.01;100113.30;126955;1310;108888;-75
2021/12/08 02:14:25;;;;;;;34.10;16.10;;;;;;;-3.01;68.86;100112.39;127021;1313;108912;-74
2021/12/08 02:17:31;;;;;;;30.10;15.20;;;;;;;-3.06;69.10;100114.89;126994;1313;108960;-74
2021/12/08 02:20:37;;;;;;;34.40;15.90;;;;;;;-3.10;69.22;100111.25;126716;1313;109191;-77
2021/12/08 02:23:44;;;;;;;33.80;15.50;;;;;;;-3.13;69.29;100109.10;126739;1314;109382;-77
2021/12/08 02:26:51;;;;;;;26.80;13.70;;;;;;;-3.08;69.30;100110.30;126558;1313;107819;-76
2021/12/08 02:30:03;;;;;;;33.80;15.20;;;;;;;-2.98;69.29;100112.40;126506;1310;108993;-77
2021/12/08 02:46:48;;;;;;;29.50;14.80;;;;;;;-2.57;69.22;100103.03;126617;1314;108714;-76
2021/12/08 02:49:53;;;;;;;30.70;15.10;;;;;;;-2.58;69.01;100109.68;126792;1310;106737;-72
2021/12/08 02:53:01;;;;;;;29.20;14.60;;;;;;;-2.67;69.14;100121.63;126741;1314;108934;-74
2021/12/08 02:56:07;;;;;;;28.50;14.80;;;;;;;-2.72;69.15;100123.44;126469;1311;108935;-75
2021/12/08 02:59:13;;;;;;;29.00;14.20;;;;;;;-2.73;69.24;100121.57;126480;1310;109055;-75
2021/12/08 03:02:19;;;;;;;29.00;14.30;;;;;;;-2.80;69.31;100117.66;126559;1310;107658;-75
2021/12/08 03:05:24;;;;;;;26.30;13.80;;;;;;;-2.85;69.58;100115.98;126592;1310;108720;-75
2021/12/08 03:08:30;;;;;;;29.30;14.30;;;;;;;-2.90;69.43;100115.00;126673;1313;108691;-74
2021/12/08 03:11:37;;;;;;;28.00;14.50;;;;;;;-2.96;69.41;100112.88;126501;1311;108919;-74
2021/12/08 03:14:44;;;;;;;29.60;15.00;;;;;;;-3.01;69.77;100108.21;126511;1314;108894;-74
2021/12/08 03:17:50;;;;;;;34.90;16.70;;;;;;;-3.03;69.61;100100.98;126568;1314;108733;-77
2021/12/08 03:20:55;;;;;;;35.90;16.20;;;;;;;-3.02;69.84;100090.36;126644;1311;109333;-77
2021/12/08 03:24:17;;;;;;;32.20;15.40;;;;;;;-2.98;69.66;100078.69;126474;1313;108897;-77
2021/12/08 03:27:31;;;;;;;31.40;14.90;;;;;;;-2.91;69.56;100076.42;126522;1314;108841;-75
2021/12/08 03:30:41;;;;;;;29.60;14.00;;;;;;;-2.81;69.68;100074.39;126656;1310;108086;-76
2021/12/08 03:33:47;;;;;;;31.70;14.50;;;;;;;-2.75;69.43;100073.56;126826;1311;107529;-75
2021/12/08 03:36:53;;;;;;;30.00;15.20;;;;;;;-2.69;69.44;100068.43;126476;1311;108890;-76
2021/12/08 03:40:00;;;;;;;28.60;14.70;;;;;;;-2.68;69.52;100061.05;126761;1310;108749;-75
2021/12/08 03:43:06;;;;;;;30.70;14.90;;;;;;;-2.70;69.66;100060.45;126639;1313;108956;-77
2021/12/08 03:46:15;;;;;;;29.90;14.70;;;;;;;-2.70;69.65;100061.00;126731;1314;106818;-77
2021/12/08 03:49:21;;;;;;;30.10;14.40;;;;;;;-2.72;69.62;100065.81;126965;1313;108737;-78
2021/12/08 03:52:28;;;;;;;29.80;14.90;;;;;;;-2.77;69.71;100065.51;126867;1310;107563;-76
2021/12/08 03:55:34;;;;;;;28.60;14.00;;;;;;;-2.82;69.61;100058.41;126714;1314;109028;-79
2021/12/08 03:58:39;;;;;;;25.10;12.20;;;;;;;-2.89;69.72;100057.18;126960;1313;109174;-77
2021/12/08 04:01:45;;;;;;;30.40;13.90;;;;;;;-2.94;69.81;100048.55;126961;1313;108758;-78
2021/12/08 04:04:51;;;;;;;25.90;12.90;;;;;;;-3.00;69.57;100049.32;126866;1314;109041;-78
2021/12/08 04:08:02;;;;;;;27.00;13.20;;;;;;;-3.05;69.84;100050.29;126768;1314;109669;-78
2021/12/08 04:11:10;;;;;;;30.90;15.00;;;;;;;-3.05;69.73;100053.59;126603;1310;108909;-75
2021/12/08 04:14:19;;;;;;;36.30;16.10;;;;;;;-3.11;69.92;100052.14;126553;1310;108704;-74
2021/12/08 04:17:29;;;;;;;34.10;15.60;;;;;;;-3.15;69.86;100048.84;126547;1310;108851;-72
2021/12/08 04:20:40;;;;;;;37.30;15.40;;;;;;;-3.22;70.03;100039.91;126448;1314;107823;-73
2021/12/08 04:23:47;;;;;;;33.10;15.00;;;;;;;-3.20;70.30;100032.69;126574;1313;109603;-72
2021/12/08 04:26:56;;;;;;;31.70;13.10;;;;;;;-3.13;70.36;100023.13;126863;1311;107693;-73
2021/12/08 04:30:05;;;;;;;34.70;16.40;;;;;;;-3.07;70.27;100014.86;126597;1310;107346;-73
2021/12/08 04:33:11;;;;;;;40.10;18.70;;;;;;;-3.07;70.16;100010.88;126949;1310;108795;-73
2021/12/08 04:36:17;;;;;;;36.60;15.50;;;;;;;-3.13;70.12;100014.11;126766;1310;107620;-72
2021/12/08 04:39:43;;;;;;;38.60;18.30;;;;;;;-3.16;70.27;100011.46;126834;1310;108897;-72
2021/12/08 04:43:00;;;;;;;72.60;33.80;;;;;;;-3.17;70.16;100009.93;126820;1314;108734;-73
2021/12/08 04:46:14;;;;;;;48.30;23.60;;;;;;;-3.16;70.35;100015.11;126543;1310;108689;-72
2021/12/08 04:49:38;;;;;;;43.90;21.80;;;;;;;-3.16;70.21;100016.35;126649;1313;108784;-72
2021/12/08 04:52:54;;;;;;;44.80;20.90;;;;;;;-3.20;70.20;100009.20;126912;1310;108696;-73
2021/12/08 05:03:05;;;;;;;37.60;16.90;;;;;;;-3.34;70.51;100017.36;126814;1310;106884;-73
2021/12/08 05:06:25;;;;;;;49.60;22.20;;;;;;;-3.43;70.64;100011.85;126745;1314;109161;-72
2021/12/08 05:09:34;;;;;;;63.20;24.80;;;;;;;-3.41;70.72;100003.60;126656;1310;108524;-72
2021/12/08 05:12:40;;;;;;;57.60;22.70;;;;;;;-3.33;70.59;100006.68;126591;1310;108787;-72
2021/12/08 05:15:52;;;;;;;63.50;25.30;;;;;;;-3.24;70.69;100003.14;126735;1311;108817;-73
2021/12/08 05:19:00;;;;;;;44.70;18.30;;;;;;;-3.12;70.68;100002.58;126917;1310;108906;-72
2021/12/08 05:22:12;;;;;;;42.60;19.00;;;;;;;-3.01;70.65;100001.72;126606;1310;108811;-72
2021/12/08 05:25:23;;;;;;;46.40;20.00;;;;;;;-2.95;70.44;100011.16;126376;1310;108914;-73
2021/12/08 05:28:29;;;;;;;41.40;18.60;;;;;;;-2.91;70.46;100008.92;126538;1310;108900;-72
2021/12/08 05:31:36;;;;;;;41.20;19.90;;;;;;;-2.89;70.70;100006.36;126850;1310;108698;-73
2021/12/08 05:34:42;;;;;;;37.90;17.90;;;;;;;-2.88;70.62;100002.34;126516;1311;108754;-73
2021/12/08 05:37:48;;;;;;;44.40;22.20;;;;;;;-2.92;70.55;100003.37;126369;1314;108998;-72
2021/12/08 05:40:56;;;;;;;41.70;19.70;;;;;;;-2.96;70.61;100006.53;126574;1311;108718;-73
2021/12/08 05:44:02;;;;;;;39.60;18.70;;;;;;;-2.99;70.56;100004.95;126588;1310;108989;-75
2021/12/08 05:47:12;;;;;;;47.00;22.60;;;;;;;-3.01;70.57;100007.80;126884;1310;108677;-73
2021/12/08 05:50:24;;;;;;;50.20;23.00;;;;;;;-3.03;70.68;100006.85;126907;1310;108822;-75
2021/12/08 05:53:28;;;;;;;;;;;;;;;-3.03;70.88;100018.17;126893;1314;108734;-75
2021/12/08 05:56:34;;;;;;;39.10;19.40;;;;;;;-3.07;70.84;100023.06;126756;1310;108559;-76
2021/12/08 05:59:41;;;;;;;40.00;21.00;;;;;;;-3.10;70.70;100027.55;126908;1310;108780;-75
2021/12/08 06:02:47;;;;;;;47.60;23.60;;;;;;;-3.12;70.81;100036.14;126852;1310;108895;-76
2021/12/08 06:05:55;;;;;;;84.10;32.80;;;;;;;-3.12;70.77;100039.80;126838;1310;108914;-75
2021/12/08 06:09:01;;;;;;;76.90;31.50;;;;;;;-3.13;70.72;100042.64;126655;1310;108680;-76
2021/12/08 06:12:10;;;;;;;65.90;30.40;;;;;;;-3.09;70.68;100034.11;126521;1310;108424;-75
2021/12/08 06:15:16;;;;;;;182.60;61.90;;;;;;;-3.03;70.47;100035.72;126648;1310;109035;-75
2021/12/08 06:18:24;;;;;;;119.70;36.40;;;;;;;-2.94;70.63;100040.38;126351;1311;108743;-76
2021/12/08 06:21:33;;;;;;;68.40;23.00;;;;;;;-2.90;70.35;100039.84;126733;1314;108547;-75
2021/12/08 06:24:39;;;;;;;108.20;30.10;;;;;;;-2.95;70.20;100045.83;126537;1310;108932;-77
2021/12/08 06:27:44;;;;;;;242.30;67.20;;;;;;;-3.01;70.30;100046.45;126439;1314;108881;-76
2021/12/08 06:30:50;;;;;;;66.70;25.50;;;;;;;-3.04;70.51;100050.25;126338;1310;108902;-76
2021/12/08 06:33:56;;;;;;;51.90;20.70;;;;;;;-3.06;70.33;100048.44;126555;1310;109052;-75
2021/12/08 06:37:06;;;;;;;39.40;17.90;;;;;;;-3.11;70.29;100044.13;126670;1311;108708;-76
2021/12/08 06:40:19;;;;;;;115.90;33.10;;;;;;;-3.17;70.31;100036.05;126580;1310;108857;-76
2021/12/08 06:43:30;;;;;;;71.00;26.10;;;;;;;-3.27;70.41;100040.67;126451;1310;108823;-75
2021/12/08 06:46:41;;;;;;;53.50;21.20;;;;;;;-3.35;70.51;100049.06;126687;1314;108357;-75
2021/12/08 06:49:48;;;;;;;46.90;19.20;;;;;;;-3.42;70.45;100049.70;126915;1310;108818;-76
2021/12/08 06:52:55;;;;;;;86.10;28.20;;;;;;;-3.45;70.56;100046.88;126877;1310;108631;-75
2021/12/08 06:56:03;;;;;;;72.40;26.00;;;;;;;-3.51;70.59;100047.86;126866;1311;108798;-78
2021/12/08 06:59:12;;;;;;;53.70;22.90;;;;;;;-3.54;70.71;100051.48;126810;1311;109013;-76
2021/12/08 07:02:33;;;;;;;60.50;23.90;;;;;;;-3.54;70.82;100059.11;126776;1311;107377;-77
2021/12/08 07:06:05;;;;;;;52.50;20.80;;;;;;;-3.45;70.77;100052.65;126874;1311;108811;-76
2021/12/08 07:09:14;;;;;;;37.60;17.80;;;;;;;-3.31;70.77;100046.60;126869;1311;108739;-76
2021/12/08 07:12:23;;;;;;;51.20;21.90;;;;;;;-3.20;70.51;100045.94;126763;1311;108981;-76
2021/12/08 07:15:33;;;;;;;42.50;18.40;;;;;;;-3.14;70.48;100043.04;126730;1310;108835;-77
2021/12/08 07:18:51;;;;;;;45.70;20.40;;;;;;;-3.15;70.31;100035.41;126745;1310;107007;-75
2021/12/08 07:21:58;;;;;;;53.80;22.40;;;;;;;-3.14;70.45;100031.42;126716;1310;108855;-75
2021/12/08 07:25:06;;;;;;;45.00;20.40;;;;;;;-3.14;70.42;100027.38;126864;1310;108508;-76
2021/12/08 07:28:14;;;;;;;44.40;19.60;;;;;;;-3.12;70.39;100034.62;126892;1311;107768;-76
2021/12/08 07:31:24;;;;;;;48.40;21.60;;;;;;;-3.15;70.51;100034.75;126860;1310;109543;-75
2021/12/08 07:34:32;;;;;;;43.00;20.20;;;;;;;-3.19;70.53;100040.80;126321;1310;128184;-75
2021/12/08 07:37:38;;;;;;;47.90;19.40;;;;;;;-3.24;70.32;100046.29;126813;1311;108855;-76
2021/12/08 07:40:49;;;;;;;42.60;19.80;;;;;;;-3.28;70.44;100036.73;126853;1310;108794;-75
2021/12/08 07:43:57;;;;;;;64.40;24.70;;;;;;;-3.31;70.56;100028.16;126747;1310;108526;-76
2021/12/08 07:47:07;;;;;;;42.10;17.70;;;;;;;-3.39;70.67;100029.55;126781;1310;108969;-76
2021/12/08 07:50:20;;;;;;;47.70;19.40;;;;;;;-3.41;70.62;100030.91;126874;1310;108733;-75
2021/12/08 07:53:28;;;;;;;48.40;21.10;;;;;;;-3.44;70.80;100029.82;126575;1310;108879;-75
2021/12/08 07:56:35;;;;;;;37.10;16.50;;;;;;;-3.42;71.09;100024.52;126826;1310;108806;-76
2021/12/08 07:59:43;;;;;;;43.50;19.30;;;;;;;-3.35;70.84;100017.94;126772;1310;108641;-75
2021/12/08 08:02:49;;;;;;;37.50;16.00;;;;;;;-3.30;70.97;100014.56;126870;1310;108981;-76
2021/12/08 08:05:57;;;;;;;40.50;18.00;;;;;;;-3.23;70.94;100010.05;126858;1311;108915;-75
2021/12/08 08:09:04;;;;;;;41.60;18.30;;;;;;;-3.17;70.73;100015.00;126831;1313;108767;-75
2021/12/08 08:12:14;;;;;;;51.10;23.60;;;;;;;-3.11;70.83;100017.86;126828;1310;109215;-76
2021/12/08 08:15:24;;;;;;;42.60;19.60;;;;;;;-3.10;70.55;100007.56;126642;1310;108706;-75
2021/12/08 08:18:30;;;;;;;46.40;22.00;;;;;;;-3.13;70.70;100005.75;126760;1311;106988;-76
2021/12/08 08:21:39;;;;;;;37.10;17.30;;;;;;;-3.14;70.72;100003.90;126631;1310;108917;-75
2021/12/08 08:24:46;;;;;;;40.50;17.80;;;;;;;-3.23;70.66;100007.41;126736;1311;108802;-76
2021/12/08 08:27:52;;;;;;;39.10;17.40;;;;;;;-3.30;70.66;100010.58;126832;1310;108769;-77
2021/12/08 08:31:03;;;;;;;38.10;17.70;;;;;;;-3.32;70.64;100018.46;126765;1311;108932;-75
2021/12/08 08:34:09;;;;;;;36.40;16.70;;;;;;;-3.33;70.62;100021.64;126855;1310;107088;-76
2021/12/08 08:37:16;;;;;;;39.20;18.60;;;;;;;-3.34;70.79;100027.08;126651;1310;108734;-76
2021/12/08 08:40:28;;;;;;;41.20;18.10;;;;;;;-3.39;70.93;100030.96;126961;1310;108900;-77
2021/12/08 08:43:34;;;;;;;38.00;17.50;;;;;;;-3.39;70.70;100033.39;126867;1310;108801;-76
2021/12/08 08:46:45;;;;;;;40.60;18.00;;;;;;;-3.41;70.70;100037.14;126928;1310;108606;-76
2021/12/08 08:49:56;;;;;;;39.90;17.90;;;;;;;-3.41;70.63;100035.20;126879;1311;108857;-76
2021/12/08 08:53:02;;;;;;;34.30;14.70;;;;;;;-3.37;70.62;100034.17;126940;1311;108634;-75
2021/12/08 08:56:12;;;;;;;38.50;17.20;;;;;;;-3.27;70.57;100040.83;126953;1310;108948;-77
2021/12/08 08:59:21;;;;;;;40.00;18.80;;;;;;;-3.20;70.35;100047.13;126988;1314;108964;-76
2021/12/08 09:02:33;;;;;;;42.00;18.80;;;;;;;-3.19;70.03;100047.78;126837;1310;108983;-76
2021/12/08 09:05:45;;;;;;;40.20;19.70;;;;;;;-3.20;70.16;100044.55;126501;1310;108677;-75
2021/12/08 09:08:51;;;;;;;48.20;21.10;;;;;;;-3.24;70.11;100037.92;126572;1314;108766;-75
2021/12/08 09:12:02;;;;;;;53.80;22.70;;;;;;;-3.31;70.19;100034.61;126537;1311;108801;-75
2021/12/08 09:15:13;;;;;;;51.50;21.80;;;;;;;-3.40;70.09;100031.20;126681;1310;109048;-75
2021/12/08 09:18:22;;;;;;;46.50;20.40;;;;;;;-3.44;70.09;100031.57;126845;1310;108939;-75
2021/12/08 09:21:34;;;;;;;52.60;22.80;;;;;;;-3.44;70.11;100033.12;126758;1310;108762;-76
2021/12/08 09:24:47;;;;;;;49.10;22.30;;;;;;;-3.36;70.03;100039.89;127056;1311;108869;-76
2021/12/08 09:27:56;;;;;;;47.90;22.60;;;;;;;-3.30;69.90;100029.68;126868;1310;108876;-75
2021/12/08 09:31:07;;;;;;;57.60;24.30;;;;;;;-3.22;70.10;100011.38;126707;1310;108659;-76
2021/12/08 09:34:20;;;;;;;57.30;25.30;;;;;;;-3.14;69.64;99995.39;126555;1311;108801;-76
2021/12/08 09:37:35;;;;;;;52.70;25.10;;;;;;;-3.12;69.61;99987.61;126405;1310;108783;-77
2021/12/08 09:40:47;;;;;;;96.80;35.80;;;;;;;-3.04;69.73;99990.04;126540;1316;108950;-77
2021/12/08 09:43:57;;;;;;;167.20;46.30;;;;;;;-2.94;69.65;99983.81;126846;1310;106679;-76
2021/12/08 09:47:03;;;;;;;166.70;42.00;;;;;;;-2.97;69.52;99985.84;126835;1310;108977;-76
2021/12/08 09:50:12;;;;;;;86.90;29.10;;;;;;;-2.91;69.48;99989.44;126837;1310;108776;-76
2021/12/08 09:53:18;;;;;;;145.30;39.70;;;;;;;-2.90;69.42;99995.98;126616;1314;108728;-76
2021/12/08 09:56:24;;;;;;;106.40;33.20;;;;;;;-2.98;69.18;99997.37;126677;1314;108892;-75
2021/12/08 09:59:32;;;;;;;69.70;25.60;;;;;;;-3.00;69.31;99997.65;126820;1310;109019;-76
2021/12/08 10:02:38;;;;;;;131.70;38.30;;;;;;;-2.91;69.31;99991.48;126834;1310;108797;-76
2021/12/08 10:05:44;;;;;;;85.80;30.70;;;;;;;-2.81;69.27;99990.64;126869;1310;108794;-76
2021/12/08 10:08:51;;;;;;;66.70;28.40;;;;;;;-2.72;69.27;99993.01;126880;1310;108864;-76
2021/12/08 10:11:57;;;;;;;55.70;25.20;;;;;;;-2.63;69.32;99992.02;126546;1310;108933;-76
2021/12/08 10:15:03;;;;;;;43.00;20.30;;;;;;;-2.53;69.03;99979.73;126876;1310;108787;-76
2021/12/08 10:18:09;;;;;;;37.40;19.10;;;;;;;-2.53;68.71;99974.30;126859;1310;108934;-76
2021/12/08 10:21:16;;;;;;;36.90;18.60;;;;;;;-2.51;68.80;99962.19;126804;1314;107429;-76
2021/12/08 10:24:24;;;;;;;37.40;17.80;;;;;;;-2.45;68.92;99961.38;126478;1310;107558;-76
2021/12/08 10:27:29;;;;;;;33.60;17.20;;;;;;;-2.45;68.96;99963.29;126570;1310;108876;-76
2021/12/08 10:30:41;;;;;;;35.60;17.70;;;;;;;-2.39;68.74;99961.56;126855;1310;108912;-77
2021/12/08 10:34:01;;;;;;;34.80;17.80;;;;;;;-2.33;68.74;99957.29;126803;1310;107800;-76
2021/12/08 10:37:11;;;;;;;38.70;19.60;;;;;;;-2.26;68.99;99956.75;126527;1311;108878;-74
2021/12/08 10:40:56;;;;;;;45.00;23.20;;;;;;;-2.17;68.46;99952.27;126571;1314;107330;-76
2021/12/08 10:44:04;;;;;;;73.10;39.40;;;;;;;-2.12;68.16;99944.20;126669;1311;108415;-76
2021/12/08 10:47:10;;;;;;;45.00;23.20;;;;;;;-2.05;68.61;99948.34;126811;1311;108824;-76
2021/12/08 10:57:24;;;;;;;45.90;24.50;;;;;;;-1.75;68.19;99951.31;126857;1310;109066;-77
2021/12/08 11:00:33;;;;;;;33.40;19.00;;;;;;;-1.69;68.14;99952.52;126614;1313;108790;-76
2021/12/08 11:03:39;;;;;;;41.90;22.60;;;;;;;-1.69;68.02;99953.75;126671;1313;108751;-77
2021/12/08 11:06:45;;;;;;;37.90;21.80;;;;;;;-1.67;68.47;99943.50;126732;1311;108695;-76
2021/12/08 11:09:51;;;;;;;37.30;20.20;;;;;;;-1.62;67.91;99949.20;126583;1310;107454;-76
2021/12/08 11:12:59;;;;;;;34.10;18.20;;;;;;;-1.63;67.81;99949.62;126564;1310;107244;-76
2021/12/08 11:16:10;;;;;;;30.30;16.20;;;;;;;-1.66;67.71;99942.78;126442;1310;107007;-77
2021/12/08 11:19:20;;;;;;;27.40;15.00;;;;;;;-1.71;67.56;99932.58;126690;1310;108665;-77
2021/12/08 11:22:33;;;;;;;30.70;15.70;;;;;;;-1.84;67.62;99928.59;126779;1310;107272;-76
2021/12/08 11:25:41;;;;;;;37.80;16.90;;;;;;;-1.91;67.47;99919.05;126587;1310;108773;-77
2021/12/08 11:28:53;;;;;;;107.60;31.00;;;;;;;-1.97;67.67;99915.98;126744;1310;107188;-76
2021/12/08 11:32:01;;;;;;;66.80;22.70;;;;;;;-1.97;68.05;99915.48;126628;1310;108930;-75
2021/12/08 11:35:18;;;;;;;147.00;38.40;;;;;;;-1.97;68.07;99906.95;126679;1310;107622;-76
2021/12/08 11:38:27;;;;;;;80.80;27.20;;;;;;;-1.92;67.91;99904.23;126879;1310;109228;-76
2021/12/08 11:41:36;;;;;;;76.50;27.70;;;;;;;-1.95;68.01;99900.08;126750;1310;108796;-77
2021/12/08 11:44:45;;;;;;;83.40;30.30;;;;;;;-1.98;68.05;99902.27;126700;1310;108779;-76
2021/12/08 11:47:50;;;;;;;53.00;22.50;;;;;;;-1.97;67.82;99895.61;126843;1310;108748;-76
2021/12/08 11:51:10;;;;;;;92.30;32.40;;;;;;;-1.99;68.19;99899.39;126846;1310;108902;-77
2021/12/08 11:54:32;;;;;;;59.20;23.30;;;;;;;-1.93;68.12;99900.67;126901;1314;107582;-77
2021/12/08 11:57:40;;;;;;;59.70;24.10;;;;;;;-1.91;68.16;99895.99;126727;1310;108737;-76
2021/12/08 12:00:50;;;;;;;67.40;25.50;;;;;;;-1.94;68.12;99892.84;126811;1310;108635;-77
2021/12/08 12:03:56;;;;;;;59.60;24.00;;;;;;;-2.00;68.17;99884.45;126720;1310;108817;-76
2021/12/08 12:07:02;;;;;;;47.10;21.30;;;;;;;-2.03;67.92;99878.67;126851;1310;108722;-76
2021/12/08 12:10:09;;;;;;;65.60;25.50;;;;;;;-1.99;68.18;99877.45;126852;1310;108899;-77
2021/12/08 12:13:15;;;;;;;44.80;20.20;;;;;;;-1.95;68.08;99871.80;126988;1310;107376;-76
2021/12/08 12:16:21;;;;;;;39.10;18.90;;;;;;;-1.91;68.12;99870.04;126565;1310;108778;-77
2021/12/08 12:19:31;;;;;;;38.40;19.10;;;;;;;-1.92;67.93;99861.89;126906;1311;108893;-77
2021/12/08 12:22:43;;;;;;;36.00;17.80;;;;;;;-1.98;67.89;99858.33;126912;1310;108789;-76
2021/12/08 12:26:09;;;;;;;35.50;18.00;;;;;;;-2.00;68.07;99856.92;126601;1310;108999;-76
2021/12/08 12:29:25;;;;;;;41.70;21.30;;;;;;;-1.95;68.14;99866.45;126853;1310;108835;-76
2021/12/08 12:32:37;;;;;;;41.00;20.70;;;;;;;-1.98;68.10;99864.98;126629;1310;108954;-75
2021/12/08 12:35:50;;;;;;;38.60;19.10;;;;;;;-2.02;67.85;99864.16;126967;1310;108860;-75
2021/12/08 12:38:54;;;;;;;;;;;;;;;-2.06;68.15;99863.52;126972;1310;108705;-75
2021/12/08 12:42:05;;;;;;;34.80;17.60;;;;;;;-2.05;68.18;99862.23;126942;1314;108724;-75
2021/12/08 12:45:14;;;;;;;35.40;17.90;;;;;;;-2.02;68.10;99866.41;126632;1310;108972;-75
2021/12/08 12:48:26;;;;;;;38.40;19.70;;;;;;;-2.02;67.96;99869.57;126927;1314;109010;-74
2021/12/08 12:51:58;;;;;;;36.40;18.30;;;;;;;-2.04;68.08;99864.63;126995;1311;108748;-75
2021/12/08 12:55:11;;;;;;;35.70;17.90;;;;;;;-2.03;68.08;99852.39;126804;1310;108874;-75
2021/12/08 12:58:18;;;;;;;37.60;18.80;;;;;;;-2.03;68.11;99850.29;126916;1310;106615;-75
2021/12/08 13:01:30;;;;;;;39.90;19.80;;;;;;;-2.06;67.95;99846.23;126997;1311;108739;-76
2021/12/08 13:04:49;;;;;;;33.00;18.30;;;;;;;-2.09;67.73;99845.20;126993;1310;108715;-74
2021/12/08 13:08:04;;;;;;;31.30;17.20;;;;;;;-2.11;68.26;99849.70;126914;1310;108714;-75
2021/12/08 13:11:52;;;;;;;34.60;18.30;;;;;;;-2.13;68.40;99842.66;126550;1310;107296;-75
2021/12/08 13:15:16;;;;;;;36.90;19.30;;;;;;;-2.16;68.28;99849.94;126853;1310;108745;-74
2021/12/08 13:18:25;;;;;;;43.30;22.60;;;;;;;-2.15;68.32;99849.71;126550;1311;108747;-74
2021/12/08 13:21:46;;;;;;;59.20;27.30;;;;;;;-2.16;68.08;99848.52;126841;1311;108521;-75
2021/12/08 13:24:51;;;;;;;55.10;25.80;;;;;;;-2.16;68.39;99851.51;126739;1310;108764;-75
2021/12/08 13:28:09;;;;;;;61.10;28.20;;;;;;;-2.17;68.11;99849.62;126605;1310;107444;-74
2021/12/08 13:31:25;;;;;;;76.30;31.20;;;;;;;-2.10;68.26;99849.29;126645;1310;109727;-75
2021/12/08 13:34:34;;;;;;;76.00;30.00;;;;;;;-2.00;68.22;99850.42;126571;1311;108661;-75
2021/12/08 13:37:57;;;;;;;91.50;33.50;;;;;;;-1.91;67.88;99854.00;126625;1311;109009;-75
2021/12/08 13:41:13;;;;;;;108.10;36.60;;;;;;;-1.87;68.07;99853.58;126957;1310;109046;-74
2021/12/08 13:44:25;;;;;;;86.90;33.90;;;;;;;-1.86;68.18;99853.36;126541;1310;108950;-75
2021/12/08 13:47:35;;;;;;;109.30;39.00;;;;;;;-1.87;67.76;99857.77;126961;1310;108825;-76
2021/12/08 13:50:41;;;;;;;106.60;36.60;;;;;;;-1.93;67.97;99858.80;126845;1310;108830;-76
2021/12/08 13:54:06;;;;;;;114.20;38.80;;;;;;;-1.99;68.23;99861.36;126930;1310;108880;-75
2021/12/08 13:57:30;;;;;;;115.50;39.20;;;;;;;-2.04;68.05;99862.02;126856;1310;108814;-75
2021/12/08 14:00:39;;;;;;;142.30;43.80;;;;;;;-2.12;68.13;99858.42;126690;1310;106628;-75
2021/12/08 14:03:48;;;;;;;119.20;40.80;;;;;;;-2.15;68.02;99861.20;126469;1311;108870;-75
2021/12/08 14:06:54;;;;;;;99.00;36.50;;;;;;;-2.21;68.40;99859.60;126547;1310;109994;-75
2021/12/08 14:10:01;;;;;;;103.50;39.10;;;;;;;-2.25;67.98;99871.14;126877;1310;108847;-75
2021/12/08 14:13:09;;;;;;;100.10;37.90;;;;;;;-2.31;68.45;99874.05;126997;1310;108697;-75
2021/12/08 14:16:17;;;;;;;92.80;36.40;;;;;;;-2.39;68.31;99875.18;126748;1310;108895;-75
2021/12/08 14:19:23;;;;;;;95.00;36.40;;;;;;;-2.44;68.47;99879.27;126745;1310;108807;-76
2021/12/08 14:22:40;;;;;;;75.20;31.80;;;;;;;-2.46;68.61;99877.12;126892;1310;106909;-75
2021/12/08 14:25:50;;;;;;;68.70;29.30;;;;;;;-2.49;68.47;99877.63;126629;1311;109086;-74
2021/12/08 14:28:57;;;;;;;65.60;28.00;;;;;;;-2.51;68.52;99880.02;126876;1310;108836;-75
2021/12/08 14:32:04;;;;;;;80.70;28.80;;;;;;;-2.55;68.58;99881.58;126880;1310;108729;-76